Boulder Creek, CA (95006)

7:29 PM PST on December 20, 2014 (GMT -0800)
Tinkers | Change Station
CLOSE
Current Station
Personal Weather Station
Location: Boulder Creek, CA
Elevation: 738 ft
Nearby Weather Stations

Elev 738 ft 37.11 °N, 122.11 °W | Updated 2 minutes ago

Overcast
Overcast
54.1 °F
Feels Like 54.1 °F
N
0.0
Wind Variable Wind from WNW
Gusts 0.0 mph

Today
High -- | Low -- °F
--% Chance of Precip.
Yesterday
High -- | Low -- °F
Precip. -- in
7:17 AM 4:54 PM
Waning Crescent, 1% visible
Pressure 30.23 in
Visibility 10.0 miles
Clouds Mostly Cloudy 4200 ft
Dew Point 54 °F
Humidity 100%
Rainfall 0.27 in
Snow Depth Not available.
UV 0 out of 12
Pollen 4.00 out of 12
Air Quality Not available.
Flu Activity Not available.
METAR KSJC 210253Z 14003KT 10SM BKN042 16/09 A3023 RMK AO2 SLP236 T01560094 53008

More Conditions Fewer Conditions

Pressure 30.23 in
Visibility 10.0 miles
Clouds Mostly Cloudy 4200 ft
Dew Point 54 °F
Humidity 100%
Rainfall 0.27 in
Snow Depth Not available.
UV 0 out of 12
Pollen 4.00 out of 12
Air Quality Not available.
Flu Activity Not available.
METAR KSJC 210253Z 14003KT 10SM BKN042 16/09 A3023 RMK AO2 SLP236 T01560094 53008

More Conditions Fewer Conditions

10-Day Weather Forecast

Almanac

Astronomy

Dec. 20, 2014 Rise Set
Actual Time
Civil Twilight
Nautical Twilight
Astronomical Twilight
Moon
Length of Visible Light
Length of Day
Tomorrow will be .
, % of the Moon is Illuminated

Today's Extremes

State Highs State Lows

Community

WunderPhotos

Upload Photos

1,779,352 photos uploaded!

WunderBlogs® & News

Nearby

Air Quality

  Air Quality AQ Index Pollutant
Not available.

Snow Depth

Station Depth Elevation

Earthquake Activity

City Distance Mag. Time & Date
Minimum magnitude displayed is 2.5.

Coastal Water Temperatures

Place Temperature

Nearby Weather Stations